Time;durP1;ratioP1;P1;durP2;ratioP2;P2;SDS_P1;SDS_P2;PMS_P1;PMS_P2;Temp;Humidity;BMP_temperature;BMP_pressure;BME280_temperature;BME280_humidity;BME280_pressure;Samples;Min_cycle;Max_cycle;Signal;HPM_P1;HPM_P2
2021/09/17 00:02:08;;;;;;;12.02;4.25;;;;;;;20.40;69.26;100600.13;5098935;28;20059;-66
2021/09/17 00:04:35;;;;;;;14.35;4.20;;;;;;;20.43;69.12;100610.78;5075893;28;20412;-68
2021/09/17 00:07:02;;;;;;;8.90;4.55;;;;;;;20.36;69.82;100604.81;5099514;28;20052;-67
2021/09/17 00:09:29;;;;;;;7.03;3.53;;;;;;;20.52;69.59;100608.75;5100641;28;20040;-66
2021/09/17 00:11:56;;;;;;;8.05;4.47;;;;;;;20.54;69.34;100606.38;5095973;28;20112;-65
2021/09/17 00:14:23;;;;;;;12.82;3.88;;;;;;;20.45;69.29;100599.94;5094962;28;20143;-61
2021/09/17 00:16:49;;;;;;;18.05;4.35;;;;;;;20.43;69.57;100602.25;5098335;28;20071;-72
2021/09/17 00:19:16;;;;;;;9.38;4.15;;;;;;;20.48;69.35;100609.75;5108610;28;20040;-71
2021/09/17 00:21:43;;;;;;;12.98;4.85;;;;;;;20.51;69.25;100611.91;5094902;28;20544;-70
2021/09/17 00:24:10;;;;;;;10.15;4.18;;;;;;;20.63;68.95;100606.31;5100610;28;20049;-82
2021/09/17 00:26:37;;;;;;;9.52;4.32;;;;;;;20.59;68.82;100594.81;5103398;28;20055;-73
2021/09/17 00:29:04;;;;;;;13.25;5.00;;;;;;;20.54;68.82;100595.03;5123099;28;20043;-76
2021/09/17 00:31:31;;;;;;;10.88;5.03;;;;;;;20.29;68.95;100562.84;5098471;28;20123;-74
2021/09/17 00:33:58;;;;;;;11.75;4.82;;;;;;;20.47;69.00;100586.22;5107495;28;20159;-73
2021/09/17 00:36:25;;;;;;;13.93;4.68;;;;;;;20.43;69.03;100590.09;5110055;28;20093;-75
2021/09/17 00:38:51;;;;;;;10.85;4.68;;;;;;;20.41;68.79;100587.63;5106962;28;20122;-72
2021/09/17 00:41:18;;;;;;;9.23;4.20;;;;;;;20.38;69.47;100587.47;5093315;28;20109;-72
2021/09/17 00:43:45;;;;;;;11.13;4.80;;;;;;;20.37;69.35;100583.78;5096941;28;20048;-70
2021/09/17 00:46:12;;;;;;;10.98;5.70;;;;;;;20.31;69.67;100576.69;5112553;28;20131;-76
2021/09/17 00:48:38;;;;;;;11.75;4.88;;;;;;;20.38;69.85;100582.63;5082737;28;20050;-72
2021/09/17 00:51:06;;;;;;;18.55;4.72;;;;;;;20.36;69.89;100576.47;5107950;28;20130;-73
2021/09/17 00:53:36;;;;;;;10.45;5.72;;;;;;;20.29;69.90;100574.19;5109107;28;20063;-76
2021/09/17 00:56:04;;;;;;;9.07;4.68;;;;;;;20.26;70.23;100571.22;5109884;28;20048;-67
2021/09/17 00:58:31;;;;;;;9.27;4.15;;;;;;;20.30;70.06;100560.81;5084072;28;20064;-66
2021/09/17 01:00:58;;;;;;;10.18;4.63;;;;;;;20.36;69.66;100559.44;5106552;28;20090;-69
2021/09/17 01:03:25;;;;;;;13.27;5.65;;;;;;;20.42;69.83;100566.56;5093653;28;20044;-67
2021/09/17 01:05:52;;;;;;;15.15;5.88;;;;;;;20.34;69.90;100576.81;5098389;28;20078;-67
2021/09/17 01:08:19;;;;;;;9.60;5.43;;;;;;;20.34;69.93;100575.97;5089928;28;20072;-68
2021/09/17 01:10:46;;;;;;;12.18;5.25;;;;;;;20.24;69.88;100559.38;5091772;28;20545;-66
2021/09/17 01:13:14;;;;;;;11.55;5.50;;;;;;;20.29;69.88;100571.34;5097227;28;20139;-72
2021/09/17 01:15:41;;;;;;;16.70;5.03;;;;;;;20.25;70.08;100567.53;5070070;28;20127;-67
2021/09/17 01:18:08;;;;;;;11.50;4.97;;;;;;;20.30;69.86;100566.50;5106587;28;20128;-74
2021/09/17 01:20:35;;;;;;;15.63;5.03;;;;;;;20.23;70.25;100557.72;5096146;28;20131;-73
2021/09/17 01:23:02;;;;;;;16.23;5.28;;;;;;;20.40;69.96;100573.75;5104049;28;20571;-74
2021/09/17 01:25:29;;;;;;;11.18;5.30;;;;;;;20.43;70.16;100568.22;5105387;28;20075;-69
2021/09/17 01:27:55;;;;;;;17.17;5.75;;;;;;;20.49;69.62;100574.53;5092500;28;20511;-69
2021/09/17 01:30:23;;;;;;;9.63;4.93;;;;;;;20.41;69.95;100570.59;5102838;28;20477;-66
2021/09/17 01:32:51;;;;;;;21.38;6.45;;;;;;;20.36;70.03;100565.94;5104031;28;20131;-66
2021/09/17 01:35:19;;;;;;;12.52;6.22;;;;;;;20.37;69.81;100561.09;5103344;28;20083;-71
2021/09/17 01:37:48;;;;;;;9.80;5.72;;;;;;;20.56;70.07;100561.47;5101312;28;20130;-82
2021/09/17 01:40:15;;;;;;;20.23;5.70;;;;;;;20.93;69.39;100567.28;5111957;28;20483;-73
2021/09/17 01:42:43;;;;;;;17.90;6.63;;;;;;;21.07;68.83;100564.13;5105333;27;20127;-69
2021/09/17 01:45:11;;;;;;;26.08;6.63;;;;;;;21.09;68.96;100564.59;5100050;28;20087;-69
2021/09/17 01:47:39;;;;;;;18.88;7.88;;;;;;;21.27;68.14;100563.22;5104976;28;20138;-69
2021/09/17 01:50:07;;;;;;;16.58;6.72;;;;;;;21.25;67.70;100542.03;5103633;28;20474;-69
2021/09/17 01:52:34;;;;;;;13.45;6.50;;;;;;;21.21;67.58;100546.75;5111157;28;20138;-67
2021/09/17 01:55:02;;;;;;;23.02;6.63;;;;;;;21.12;67.61;100552.53;5100578;28;20055;-69
2021/09/17 01:57:29;;;;;;;16.35;7.72;;;;;;;20.93;68.12;100555.09;5101368;28;20468;-69
2021/09/17 01:59:56;;;;;;;14.95;7.35;;;;;;;20.81;68.53;100550.22;5100860;28;20090;-70
2021/09/17 02:02:23;;;;;;;14.32;7.65;;;;;;;20.80;68.52;100548.56;5098541;28;20039;-72
2021/09/17 02:04:50;;;;;;;14.02;6.78;;;;;;;20.58;68.45;100510.91;5104177;28;20056;-67
2021/09/17 02:07:17;;;;;;;14.23;6.88;;;;;;;20.76;68.24;100541.94;5100477;27;20070;-73
2021/09/17 02:09:44;;;;;;;17.92;7.65;;;;;;;20.93;68.32;100541.75;5108110;28;20071;-64
2021/09/17 02:12:11;;;;;;;19.50;8.20;;;;;;;20.84;67.85;100526.81;5112330;28;20044;-74
2021/09/17 02:14:38;;;;;;;19.55;7.07;;;;;;;20.88;68.18;100529.78;5103158;27;20063;-75
2021/09/17 02:17:06;;;;;;;17.50;8.60;;;;;;;20.73;67.76;100517.91;5097895;28;20143;-76
2021/09/17 02:19:33;;;;;;;21.63;8.07;;;;;;;20.66;68.18;100514.00;5105449;27;20127;-68
2021/09/17 02:22:00;;;;;;;26.83;7.45;;;;;;;20.77;68.51;100537.91;5111142;27;20047;-68
2021/09/17 02:24:27;;;;;;;21.85;9.70;;;;;;;20.77;68.53;100529.38;5102662;27;20076;-65
2021/09/17 02:26:53;;;;;;;20.85;8.80;;;;;;;20.94;68.12;100540.56;5110259;28;20074;-66
2021/09/17 02:29:20;;;;;;;26.13;8.75;;;;;;;20.90;67.89;100536.75;5110045;27;20071;-65
2021/09/17 02:31:47;;;;;;;27.10;9.02;;;;;;;20.79;68.46;100529.88;5108331;28;20593;-68
2021/09/17 02:34:14;;;;;;;22.65;8.60;;;;;;;20.91;68.21;100538.41;5114949;27;20159;-71
2021/09/17 02:36:41;;;;;;;21.45;8.68;;;;;;;20.82;68.27;100518.66;5107243;28;20049;-71
2021/09/17 02:39:10;;;;;;;18.05;9.40;;;;;;;20.87;68.16;100537.47;5107990;28;20144;-73
2021/09/17 02:41:38;;;;;;;18.13;9.73;;;;;;;20.67;68.53;100515.63;5104553;28;20075;-73
2021/09/17 02:44:05;;;;;;;20.83;8.90;;;;;;;20.73;68.27;100525.59;5107150;28;20117;-69
2021/09/17 02:46:32;;;;;;;18.88;9.50;;;;;;;20.68;68.55;100531.47;5092492;28;20123;-75
2021/09/17 02:48:59;;;;;;;17.83;8.80;;;;;;;20.68;68.98;100532.31;5107348;28;20116;-76
2021/09/17 02:51:27;;;;;;;29.13;9.18;;;;;;;20.63;68.73;100523.19;5098369;28;20123;-76
2021/09/17 02:53:54;;;;;;;21.85;8.98;;;;;;;20.57;68.94;100528.25;5104273;28;20072;-69
2021/09/17 02:56:20;;;;;;;21.55;9.65;;;;;;;20.56;69.39;100527.44;5093631;28;20131;-71
2021/09/17 02:58:47;;;;;;;23.38;9.43;;;;;;;20.56;69.05;100518.09;5104980;28;20048;-74
2021/09/17 03:01:14;;;;;;;25.83;9.63;;;;;;;20.50;69.00;100523.13;5105331;28;20040;-68
2021/09/17 03:03:41;;;;;;;30.77;9.32;;;;;;;20.34;69.15;100502.22;5095190;28;20130;-68
2021/09/17 03:06:09;;;;;;;30.85;10.88;;;;;;;20.44;69.07;100513.16;5103146;28;20516;-86
2021/09/17 03:08:35;;;;;;;24.05;9.77;;;;;;;20.40;68.88;100517.88;5101563;28;20048;-79
2021/09/17 03:11:02;;;;;;;31.52;10.82;;;;;;;20.39;69.13;100526.75;5093855;28;20564;-86
2021/09/17 03:13:29;;;;;;;24.67;9.77;;;;;;;20.36;69.03;100516.91;5109942;27;20142;-78
2021/09/17 03:15:56;;;;;;;23.85;8.27;;;;;;;20.26;68.90;100506.00;5106207;28;20134;-79
2021/09/17 03:18:23;;;;;;;26.88;10.35;;;;;;;20.32;68.85;100515.94;5102047;28;20123;-80
2021/09/17 03:20:51;;;;;;;22.85;9.77;;;;;;;20.31;68.84;100520.78;5107205;28;20134;-80
2021/09/17 03:23:19;;;;;;;25.90;10.77;;;;;;;20.29;69.01;100510.97;5106416;28;20068;-80
2021/09/17 03:25:46;;;;;;;32.05;9.93;;;;;;;20.28;69.04;100506.47;5106029;28;20069;-80
2021/09/17 03:28:13;;;;;;;26.65;9.23;;;;;;;20.19;69.18;100500.88;5104531;28;20082;-80
2021/09/17 03:30:39;;;;;;;23.80;9.35;;;;;;;20.21;69.20;100514.72;5109467;28;20050;-81
2021/09/17 03:33:09;;;;;;;23.73;9.88;;;;;;;20.09;69.37;100487.13;5104990;28;20117;-75
2021/09/17 03:35:39;;;;;;;28.95;9.50;;;;;;;20.14;69.14;100509.59;5078664;28;20503;-73
2021/09/17 03:38:07;;;;;;;26.55;10.70;;;;;;;20.07;69.00;100493.16;5100704;28;20131;-72
2021/09/17 03:40:36;;;;;;;26.08;11.35;;;;;;;20.01;69.21;100491.69;5095999;28;20420;-85
2021/09/17 03:43:04;;;;;;;26.33;9.55;;;;;;;20.09;69.16;100518.31;5110246;28;20131;-83
2021/09/17 03:45:32;;;;;;;29.52;10.20;;;;;;;20.05;69.34;100523.84;5098624;28;20126;-83
2021/09/17 03:48:05;;;;;;;30.10;10.70;;;;;;;20.02;69.13;100524.53;5112340;28;20082;-82
2021/09/17 03:50:32;;;;;;;31.27;10.32;;;;;;;20.00;69.26;100515.56;5105712;28;20086;-76
2021/09/17 03:52:59;;;;;;;34.47;10.90;;;;;;;19.91;69.45;100505.44;5096626;28;20075;-67
2021/09/17 03:55:26;;;;;;;32.35;11.02;;;;;;;19.86;69.42;100501.66;5096695;28;20074;-72
2021/09/17 03:57:53;;;;;;;34.22;10.77;;;;;;;19.98;69.46;100526.41;5092489;28;20130;-66
2021/09/17 04:00:20;;;;;;;26.33;9.68;;;;;;;19.84;69.49;100506.00;5106526;28;20063;-71
2021/09/17 04:02:46;;;;;;;31.67;11.48;;;;;;;19.95;69.43;100518.56;5100810;28;20135;-71
2021/09/17 04:05:14;;;;;;;25.98;10.57;;;;;;;19.92;69.36;100524.94;5103795;27;20122;-73
2021/09/17 04:07:42;;;;;;;25.92;9.40;;;;;;;19.89;69.56;100519.94;5110721;27;20511;-64
2021/09/17 04:10:11;;;;;;;25.98;9.50;;;;;;;19.83;69.58;100507.19;5092316;28;20134;-64
2021/09/17 04:12:38;;;;;;;30.67;10.00;;;;;;;19.85;69.73;100519.81;5108838;28;20162;-69
2021/09/17 04:15:05;;;;;;;18.55;7.97;;;;;;;19.80;69.35;100522.03;5099095;28;20444;-66
2021/09/17 04:17:32;;;;;;;21.83;9.00;;;;;;;19.72;69.51;100508.72;5109616;27;20229;-70
2021/09/17 04:19:59;;;;;;;23.63;9.45;;;;;;;19.85;69.36;100530.31;5108811;28;20118;-66
2021/09/17 04:22:26;;;;;;;16.05;9.13;;;;;;;19.49;69.49;100483.53;5101529;28;20126;-67
2021/09/17 04:24:53;;;;;;;20.50;7.82;;;;;;;19.75;69.30;100520.22;5094970;28;20126;-67
2021/09/17 04:27:21;;;;;;;17.15;7.70;;;;;;;19.75;69.34;100522.22;5102309;28;20131;-67
2021/09/17 04:29:48;;;;;;;20.45;8.82;;;;;;;19.74;69.35;100524.22;5108401;28;20075;-66
2021/09/17 04:32:15;;;;;;;23.08;8.90;;;;;;;19.58;69.37;100503.28;5096322;28;20454;-66
2021/09/17 04:34:42;;;;;;;21.25;9.05;;;;;;;19.60;69.33;100521.63;5106011;28;20083;-66
2021/09/17 04:37:09;;;;;;;21.25;8.50;;;;;;;19.67;69.26;100518.28;5104692;28;20202;-67
2021/09/17 04:39:36;;;;;;;16.33;8.02;;;;;;;19.56;69.38;100511.31;5091852;28;20128;-66
2021/09/17 04:42:03;;;;;;;18.88;7.45;;;;;;;19.51;69.40;100498.16;5094174;28;20119;-66
2021/09/17 04:44:30;;;;;;;15.60;8.27;;;;;;;19.61;69.24;100525.28;5107080;28;20123;-66
2021/09/17 04:46:57;;;;;;;15.50;7.22;;;;;;;19.53;69.24;100506.34;5090110;28;20249;-66
2021/09/17 04:49:24;;;;;;;16.75;8.30;;;;;;;19.59;69.23;100534.13;5094955;28;20079;-66
2021/09/17 04:51:51;;;;;;;18.90;8.68;;;;;;;19.58;69.27;100532.44;5106002;28;20042;-67
2021/09/17 04:54:18;;;;;;;20.83;8.95;;;;;;;19.55;69.14;100535.13;5084768;28;20124;-67
2021/09/17 04:56:45;;;;;;;20.80;8.32;;;;;;;19.51;69.38;100534.16;5103634;28;20481;-66
2021/09/17 04:59:11;;;;;;;22.83;8.85;;;;;;;19.51;69.21;100537.00;5103961;28;20067;-63
2021/09/17 05:01:38;;;;;;;20.15;8.27;;;;;;;19.41;69.38;100521.22;5106935;28;20047;-73
2021/09/17 05:04:05;;;;;;;24.25;8.05;;;;;;;19.46;69.59;100531.53;5103931;28;20483;-67
2021/09/17 05:06:32;;;;;;;14.50;7.00;;;;;;;19.33;69.36;100524.94;5106102;28;20103;-68
2021/09/17 05:09:00;;;;;;;17.15;6.60;;;;;;;19.39;69.41;100518.72;5114474;28;20139;-68
2021/09/17 05:11:27;;;;;;;15.25;6.10;;;;;;;19.40;69.54;100528.06;5110754;28;20075;-69
2021/09/17 05:13:54;;;;;;;14.48;6.07;;;;;;;19.34;69.48;100523.75;5106065;28;20043;-68
2021/09/17 05:16:21;;;;;;;10.68;6.28;;;;;;;19.34;69.89;100515.25;5108663;28;20384;-69
2021/09/17 05:18:48;;;;;;;21.85;7.78;;;;;;;19.37;69.81;100537.22;5100230;28;20126;-62
2021/09/17 05:21:15;;;;;;;15.95;6.88;;;;;;;19.32;69.68;100538.25;5082512;27;20775;-70
2021/09/17 05:23:42;;;;;;;15.27;5.70;;;;;;;19.30;69.89;100532.09;5103303;27;20075;-64
2021/09/17 05:26:09;;;;;;;14.32;6.28;;;;;;;19.32;69.96;100529.78;5108916;28;20135;-68
2021/09/17 05:28:36;;;;;;;10.68;4.93;;;;;;;19.31;69.79;100527.25;5111339;28;20140;-63
2021/09/17 05:31:02;;;;;;;11.73;5.15;;;;;;;19.23;69.76;100516.81;5106145;28;20083;-73
2021/09/17 05:33:29;;;;;;;14.02;5.80;;;;;;;19.28;69.75;100530.78;5114549;27;20122;-72
2021/09/17 05:35:56;;;;;;;13.80;4.60;;;;;;;19.20;69.44;100514.66;5100341;28;20381;-71
2021/09/17 05:38:23;;;;;;;14.13;5.10;;;;;;;19.23;69.70;100528.97;5103413;28;20062;-65
2021/09/17 05:40:50;;;;;;;13.30;4.20;;;;;;;19.23;69.68;100537.47;5103919;28;20069;-64
2021/09/17 05:43:17;;;;;;;14.65;5.13;;;;;;;18.98;69.46;100502.44;5104755;28;20054;-64
2021/09/17 05:45:43;;;;;;;8.10;4.13;;;;;;;19.21;69.43;100545.44;5100893;27;20543;-65
2021/09/17 05:48:10;;;;;;;13.80;5.50;;;;;;;19.20;69.66;100540.97;5105427;28;20121;-64
2021/09/17 05:50:37;;;;;;;13.50;4.60;;;;;;;19.18;69.67;100534.84;5106104;28;20241;-64
2021/09/17 05:53:04;;;;;;;11.77;4.78;;;;;;;19.12;69.41;100536.19;5104337;28;20127;-63
2021/09/17 05:55:31;;;;;;;8.52;3.72;;;;;;;19.10;69.64;100535.69;5107632;28;20127;-64
2021/09/17 05:57:58;;;;;;;16.65;4.85;;;;;;;19.17;69.73;100545.28;5107926;28;20135;-63
2021/09/17 06:00:25;;;;;;;11.25;4.32;;;;;;;19.19;69.58;100542.16;5104887;28;20067;-64
2021/09/17 06:02:52;;;;;;;12.60;3.92;;;;;;;19.15;69.78;100544.00;5104741;28;20447;-64
2021/09/17 06:05:19;;;;;;;10.75;3.55;;;;;;;19.10;69.67;100544.16;5107705;28;20534;-65
2021/09/17 06:07:46;;;;;;;6.53;3.78;;;;;;;19.04;69.60;100539.84;5102461;28;20067;-65
2021/09/17 06:10:14;;;;;;;5.43;3.50;;;;;;;18.94;69.79;100524.91;5092350;28;20067;-64
2021/09/17 06:12:40;;;;;;;8.10;4.30;;;;;;;19.04;69.92;100545.50;5104669;28;20080;-65
2021/09/17 06:15:08;;;;;;;12.15;3.90;;;;;;;19.04;69.92;100546.38;5106608;28;20157;-65
2021/09/17 06:17:35;;;;;;;14.23;3.95;;;;;;;19.04;69.73;100543.53;5106594;28;20132;-65
2021/09/17 06:20:03;;;;;;;10.25;4.38;;;;;;;19.07;69.49;100542.00;5104682;27;20043;-66
2021/09/17 06:22:30;;;;;;;7.82;3.70;;;;;;;19.08;69.36;100541.69;5108780;27;20460;-65
2021/09/17 06:24:56;;;;;;;14.93;4.35;;;;;;;19.10;69.63;100538.50;5086195;28;20139;-65
2021/09/17 06:27:23;;;;;;;9.95;3.80;;;;;;;19.04;69.35;100532.22;5100333;28;20524;-65
2021/09/17 06:29:50;;;;;;;12.40;4.40;;;;;;;19.15;69.40;100546.81;5103780;27;20079;-66
2021/09/17 06:32:17;;;;;;;11.93;4.05;;;;;;;19.15;69.23;100539.16;5101826;28;20127;-65
2021/09/17 06:34:44;;;;;;;10.48;3.90;;;;;;;19.21;69.48;100553.13;5104896;28;20035;-66
2021/09/17 06:37:11;;;;;;;12.80;3.72;;;;;;;19.17;69.39;100539.63;5083334;28;20131;-65
2021/09/17 06:39:37;;;;;;;6.90;3.85;;;;;;;19.27;69.36;100548.94;5106247;27;20090;-66
2021/09/17 06:42:05;;;;;;;10.75;3.95;;;;;;;19.31;69.39;100549.91;5109383;28;20130;-66
2021/09/17 06:44:32;;;;;;;11.10;3.65;;;;;;;19.36;69.25;100546.91;5100611;28;20118;-66
2021/09/17 06:46:59;;;;;;;6.90;2.90;;;;;;;19.25;68.96;100537.09;5101342;28;20121;-66
2021/09/17 06:49:27;;;;;;;10.88;3.60;;;;;;;19.42;69.07;100562.53;5103867;27;20044;-67
2021/09/17 06:51:54;;;;;;;6.75;3.60;;;;;;;19.32;69.13;100540.25;5103656;28;20124;-65
2021/09/17 06:54:22;;;;;;;6.57;3.85;;;;;;;19.44;68.86;100556.53;5102815;28;20046;-64
2021/09/17 06:56:49;;;;;;;6.53;3.80;;;;;;;19.53;68.78;100563.00;5111925;28;20118;-64
2021/09/17 06:59:15;;;;;;;6.47;3.97;;;;;;;19.57;68.73;100556.28;5103075;27;20040;-65
2021/09/17 07:01:43;;;;;;;5.63;3.78;;;;;;;19.69;68.71;100560.41;5108137;27;20544;-70
2021/09/17 07:04:10;;;;;;;8.23;4.05;;;;;;;19.73;68.62;100562.25;5103223;27;20047;-65
2021/09/17 07:06:37;;;;;;;8.73;3.97;;;;;;;19.79;68.51;100565.69;5101346;27;20545;-65
2021/09/17 07:09:05;;;;;;;6.05;3.85;;;;;;;19.73;68.40;100544.41;5100986;28;20075;-65
2021/09/17 07:11:31;;;;;;;7.75;3.53;;;;;;;19.86;68.30;100549.81;5110527;28;20507;-66
2021/09/17 07:13:58;;;;;;;8.43;3.75;;;;;;;19.98;68.30;100556.75;5110459;27;20055;-65
2021/09/17 07:16:25;;;;;;;8.18;3.65;;;;;;;20.15;68.02;100556.63;5089510;28;20050;-65
2021/09/17 07:18:52;;;;;;;7.63;4.45;;;;;;;20.26;67.69;100542.84;5096230;28;20072;-64
2021/09/17 07:21:20;;;;;;;7.28;3.47;;;;;;;20.44;67.51;100563.38;5094649;28;20416;-65
2021/09/17 07:23:47;;;;;;;8.18;4.20;;;;;;;20.64;67.38;100558.91;5112402;28;20048;-65
2021/09/17 07:26:14;;;;;;;6.95;3.78;;;;;;;20.91;66.90;100571.66;5105191;28;20187;-65
2021/09/17 07:28:41;;;;;;;7.25;3.47;;;;;;;21.17;66.50;100571.38;5099812;28;20043;-65
2021/09/17 07:31:08;;;;;;;12.25;3.95;;;;;;;21.37;66.14;100550.59;5099861;28;20047;-65
2021/09/17 07:33:34;;;;;;;11.80;3.90;;;;;;;21.66;65.87;100548.72;5103951;28;20051;-65
2021/09/17 07:36:01;;;;;;;7.68;3.72;;;;;;;21.95;65.41;100556.97;5088256;27;20502;-65
2021/09/17 07:38:28;;;;;;;11.32;3.65;;;;;;;22.31;64.48;100558.09;5094122;28;20130;-65
2021/09/17 07:40:55;;;;;;;7.18;4.22;;;;;;;22.69;64.06;100557.59;5112246;28;20138;-65
2021/09/17 07:43:22;;;;;;;7.50;3.65;;;;;;;23.01;63.08;100549.19;5100117;28;20460;-65
2021/09/17 07:45:49;;;;;;;9.20;3.78;;;;;;;23.37;62.42;100561.53;5099465;28;20139;-66
2021/09/17 07:48:16;;;;;;;8.13;3.80;;;;;;;23.81;61.13;100558.59;5101091;28;20472;-66
2021/09/17 07:50:43;;;;;;;5.28;3.63;;;;;;;24.17;60.71;100548.84;5076088;28;20436;-66
2021/09/17 07:53:10;;;;;;;9.93;4.13;;;;;;;24.56;59.87;100560.31;5092958;28;20108;-66
2021/09/17 07:55:37;;;;;;;8.13;3.53;;;;;;;24.67;59.30;100532.81;5110038;27;20043;-65
2021/09/17 07:58:05;;;;;;;8.13;3.38;;;;;;;25.02;58.11;100566.13;5097030;28;20479;-66
2021/09/17 08:00:33;;;;;;;7.13;3.60;;;;;;;24.84;57.76;100557.22;5104376;27;20116;-65
2021/09/17 08:03:00;;;;;;;7.68;3.42;;;;;;;25.03;57.98;100582.09;5114288;27;20499;-66
2021/09/17 08:05:27;;;;;;;7.47;3.40;;;;;;;25.14;57.41;100588.03;5105579;28;20108;-66
2021/09/17 08:07:55;;;;;;;9.43;4.03;;;;;;;25.25;56.64;100575.59;5105265;28;20170;-66
2021/09/17 08:10:22;;;;;;;9.15;3.70;;;;;;;25.29;56.36;100579.31;5097813;28;20047;-67
2021/09/17 08:12:49;;;;;;;4.70;2.80;;;;;;;25.19;56.39;100559.94;5083973;27;20479;-67
2021/09/17 08:15:16;;;;;;;6.50;3.35;;;;;;;25.50;55.95;100583.78;5129317;27;20085;-67
2021/09/17 08:17:43;;;;;;;4.95;2.85;;;;;;;25.29;55.66;100519.31;5107935;27;20052;-66
2021/09/17 08:20:10;;;;;;;5.40;2.95;;;;;;;25.72;55.50;100571.50;5109122;27;20040;-67
2021/09/17 08:22:38;;;;;;;9.48;3.08;;;;;;;25.72;54.92;100560.06;5109680;28;20049;-67
2021/09/17 08:25:07;;;;;;;9.88;2.83;;;;;;;25.87;54.58;100554.59;5107208;28;20051;-67
2021/09/17 08:27:36;;;;;;;6.93;2.93;;;;;;;26.16;54.29;100567.31;5103990;28;20075;-68
2021/09/17 08:30:03;;;;;;;10.50;3.13;;;;;;;26.62;53.40;100579.44;5113111;28;20378;-66
2021/09/17 08:32:30;;;;;;;4.93;2.55;;;;;;;27.14;52.68;100582.53;5109552;28;20478;-66
2021/09/17 08:34:57;;;;;;;6.38;2.90;;;;;;;27.56;51.80;100592.78;5106585;28;20105;-66
2021/09/17 08:37:24;;;;;;;4.20;2.72;;;;;;;27.82;50.91;100578.28;5112685;27;20047;-66
2021/09/17 08:39:51;;;;;;;7.65;3.17;;;;;;;28.11;50.31;100587.94;5112600;28;20127;-66
2021/09/17 08:42:18;;;;;;;4.90;3.10;;;;;;;28.09;49.91;100587.50;5105302;28;20127;-66
2021/09/17 08:44:45;;;;;;;8.20;3.55;;;;;;;28.50;49.74;100590.25;5110434;27;20142;-66
2021/09/17 08:47:16;;;;;;;5.82;2.88;;;;;;;28.63;49.17;100584.16;5105554;28;20044;-66
2021/09/17 08:49:44;;;;;;;5.60;3.03;;;;;;;28.56;48.63;100588.63;5105054;28;20044;-66
2021/09/17 08:52:12;;;;;;;9.20;3.38;;;;;;;28.09;49.01;100563.72;5100583;27;20078;-76
2021/09/17 08:54:40;;;;;;;6.68;3.33;;;;;;;28.00;49.11;100574.72;5108907;28;20235;-76
2021/09/17 08:57:10;;;;;;;7.82;3.22;;;;;;;27.96;49.45;100577.56;5103403;28;20048;-74
2021/09/17 08:59:38;;;;;;;4.32;2.85;;;;;;;27.76;49.29;100584.78;5102903;28;20138;-77
2021/09/17 09:02:29;;;;;;;5.45;2.85;;;;;;;27.61;49.67;100575.19;5097186;28;20074;-77
2021/09/17 09:04:59;;;;;;;4.13;2.75;;;;;;;27.39;49.72;100583.63;5104482;28;20043;-78
2021/09/17 09:07:40;;;;;;;4.25;2.28;;;;;;;26.96;50.03;100581.47;5106949;28;20040;-76
2021/09/17 09:10:13;;;;;;;5.90;2.20;;;;;;;26.44;50.46;100578.34;5102893;28;20075;-77
2021/09/17 09:12:45;;;;;;;4.70;2.10;;;;;;;26.15;50.86;100572.22;5108146;28;20071;-79
2021/09/17 09:15:26;;;;;;;3.15;1.75;;;;;;;25.62;51.53;100566.44;5099295;28;20071;-77
2021/09/17 09:17:58;;;;;;;5.50;2.20;;;;;;;25.21;52.03;100548.97;5104931;28;20094;-78
2021/09/17 09:20:25;;;;;;;3.72;1.67;;;;;;;25.21;52.30;100571.03;5108559;27;20039;-78
2021/09/17 09:23:13;;;;;;;3.25;1.73;;;;;;;25.00;53.05;100575.09;5106180;28;20078;-78
2021/09/17 09:26:08;;;;;;;3.42;1.77;;;;;;;24.86;53.62;100574.00;5100607;28;20265;-76
2021/09/17 09:28:39;;;;;;;4.85;2.05;;;;;;;25.33;52.66;100567.97;5091232;28;20071;-77
2021/09/17 09:31:15;;;;;;;5.68;2.20;;;;;;;25.48;52.67;100577.63;5104793;27;20734;-78
2021/09/17 09:33:45;;;;;;;4.78;2.17;;;;;;;25.76;52.38;100572.38;5103294;28;20040;-77
2021/09/17 09:36:34;;;;;;;4.45;1.80;;;;;;;26.79;51.57;100574.31;5107846;27;20040;-78
2021/09/17 09:39:04;;;;;;;3.47;1.83;;;;;;;27.61;49.71;100580.94;5099287;28;20067;-79
2021/09/17 09:41:32;;;;;;;;;;;;;;;28.00;51.19;100577.59;5103893;28;20200;-77
2021/09/17 09:44:05;;;;;;;4.10;1.48;;;;;;;28.49;48.70;100559.88;5097677;27;20398;-77
2021/09/17 09:46:37;;;;;;;4.55;1.88;;;;;;;28.95;47.57;100581.41;5100699;28;20039;-77
2021/09/17 09:49:30;;;;;;;2.38;1.67;;;;;;;29.29;47.27;100582.75;5094590;27;20081;-77
2021/09/17 09:52:00;;;;;;;4.10;1.63;;;;;;;29.58;45.32;100577.03;5100545;27;20055;-78
2021/09/17 09:54:30;;;;;;;;;;;;;;;29.25;48.35;100578.22;5103424;28;20047;-79
2021/09/17 09:56:59;;;;;;;1.83;1.50;;;;;;;30.11;46.02;100572.50;5105319;28;19919;-80
2021/09/17 09:59:32;;;;;;;5.50;1.58;;;;;;;30.78;44.61;100568.66;5101725;28;20432;-79
2021/09/17 10:02:02;;;;;;;6.00;1.88;;;;;;;31.36;43.46;100575.75;5086509;28;20086;-79
2021/09/17 10:04:31;;;;;;;4.93;2.08;;;;;;;32.19;42.15;100572.19;5087168;28;20062;-80
2021/09/17 10:07:04;;;;;;;3.33;1.60;;;;;;;32.97;40.96;100596.53;5113432;28;20462;-80
2021/09/17 10:09:32;;;;;;;5.18;2.10;;;;;;;33.87;39.22;100582.31;5098386;28;20097;-80
2021/09/17 10:11:59;;;;;;;2.20;1.23;;;;;;;33.89;38.18;100564.50;5107651;27;20864;-81
2021/09/17 10:14:30;;;;;;;3.10;1.48;;;;;;;34.02;37.50;100577.16;5115477;27;20086;-80
2021/09/17 10:16:59;;;;;;;2.05;1.35;;;;;;;34.38;37.25;100576.44;5107274;27;20047;-81
2021/09/17 10:19:27;;;;;;;1.80;1.30;;;;;;;34.44;36.58;100571.78;5103196;28;20096;-82
2021/09/17 10:22:01;;;;;;;5.28;1.48;;;;;;;34.86;36.10;100578.78;5097720;28;20071;-79
2021/09/17 10:24:35;;;;;;;4.20;1.30;;;;;;;35.13;35.62;100575.72;5098652;28;20062;-80
2021/09/17 10:27:09;;;;;;;3.45;1.70;;;;;;;35.34;33.91;100565.69;5106252;28;20051;-81
2021/09/17 10:29:52;;;;;;;2.88;1.65;;;;;;;35.14;33.27;100559.94;5112691;28;20036;-84
2021/09/17 10:32:45;;;;;;;3.55;2.30;;;;;;;34.97;33.68;100583.53;5102261;28;20543;-82
2021/09/17 10:35:29;;;;;;;2.65;2.05;;;;;;;35.06;33.32;100580.88;5102476;28;20126;-81
2021/09/17 10:38:15;;;;;;;3.75;1.50;;;;;;;35.34;33.69;100596.81;5101449;28;20047;-81
2021/09/17 10:41:05;;;;;;;3.42;1.70;;;;;;;35.73;33.24;100586.38;5110030;28;20073;-81
2021/09/17 10:43:38;;;;;;;2.33;1.50;;;;;;;35.59;32.24;100597.09;5100401;28;20530;-81
2021/09/17 10:46:21;;;;;;;6.43;1.60;;;;;;;34.90;33.75;100578.72;5101936;28;20466;-80
2021/09/17 10:48:58;;;;;;;3.00;1.55;;;;;;;34.59;33.81;100573.16;5107911;28;20544;-80
2021/09/17 10:51:39;;;;;;;2.95;0.93;;;;;;;34.47;33.77;100582.50;5104439;28;20044;-80
2021/09/17 10:54:14;;;;;;;4.22;1.30;;;;;;;34.19;33.26;100570.19;5119811;28;20047;-80
2021/09/17 10:56:47;;;;;;;2.95;1.60;;;;;;;34.19;33.45;100580.97;5116803;28;20044;-82
2021/09/17 10:59:27;;;;;;;3.28;1.80;;;;;;;34.35;32.63;100572.34;5112958;28;20044;-81
2021/09/17 11:02:07;;;;;;;2.88;1.70;;;;;;;34.74;32.64;100561.25;5118021;28;20052;-81
2021/09/17 11:04:36;;;;;;;2.50;1.40;;;;;;;35.29;32.09;100574.16;5107848;28;20035;-80
2021/09/17 11:07:32;;;;;;;;;;;;;;;35.20;33.94;100560.22;5121987;27;20047;-80
2021/09/17 11:09:58;;;;;;;4.40;1.60;;;;;;;35.77;32.03;100563.88;5107726;28;19920;-79
2021/09/17 11:12:32;;;;;;;4.32;1.70;;;;;;;36.05;31.67;100560.22;5114943;28;20044;-79
2021/09/17 11:15:11;;;;;;;2.97;1.40;;;;;;;35.76;31.09;100547.69;5114596;28;20062;-80
2021/09/17 11:17:47;;;;;;;6.93;1.90;;;;;;;35.30;32.23;100540.94;5105756;28;20055;-80
2021/09/17 11:20:20;;;;;;;3.50;1.90;;;;;;;35.62;31.67;100540.16;5111263;28;20119;-79
2021/09/17 11:22:55;;;;;;;3.30;1.80;;;;;;;35.47;31.77;100536.78;5106639;27;20113;-84
2021/09/17 11:25:31;;;;;;;4.57;2.35;;;;;;;35.60;32.04;100537.72;5096596;28;20044;-80
2021/09/17 11:27:59;;;;;;;4.20;2.05;;;;;;;35.64;31.96;100540.53;5096589;28;20075;-80
2021/09/17 11:30:29;;;;;;;3.55;1.80;;;;;;;35.94;30.64;100524.78;5105219;28;20070;-80